sensor_id;sensor_type;location;lat;lon;timestamp;pressure;altitude;pressure_sealevel;temperature;humidity
56182;BME280;51963;46.052;14.544;2024-03-23T00:52:00;97969.13;;;8.40;100.00
56182;BME280;51963;46.052;14.544;2024-03-23T00:54:26;97964.50;;;8.42;100.00
56182;BME280;51963;46.052;14.544;2024-03-23T00:56:51;97963.31;;;8.29;100.00
56182;BME280;51963;46.052;14.544;2024-03-23T00:59:18;97956.50;;;8.20;100.00
56182;BME280;51963;46.052;14.544;2024-03-23T01:01:44;97959.16;;;8.20;100.00
56182;BME280;51963;46.052;14.544;2024-03-23T01:04:10;97962.31;;;8.30;100.00
56182;BME280;51963;46.052;14.544;2024-03-23T01:06:36;97948.06;;;8.10;100.00
56182;BME280;51963;46.052;14.544;2024-03-23T01:09:01;97951.44;;;8.03;100.00
56182;BME280;51963;46.052;14.544;2024-03-23T01:11:27;97948.63;;;8.05;100.00
56182;BME280;51963;46.052;14.544;2024-03-23T01:13:54;97951.25;;;8.05;100.00
56182;BME280;51963;46.052;14.544;2024-03-23T01:16:24;97943.63;;;7.95;100.00
56182;BME280;51963;46.052;14.544;2024-03-23T01:18:50;97949.97;;;8.16;100.00
56182;BME280;51963;46.052;14.544;2024-03-23T01:21:16;97949.19;;;8.15;100.00
56182;BME280;51963;46.052;14.544;2024-03-23T01:23:45;97947.06;;;8.11;100.00
56182;BME280;51963;46.052;14.544;2024-03-23T01:26:13;97940.09;;;7.88;100.00
56182;BME280;51963;46.052;14.544;2024-03-23T01:28:50;97940.06;;;7.73;100.00
56182;BME280;51963;46.052;14.544;2024-03-23T01:31:22;97935.06;;;7.63;100.00
56182;BME280;51963;46.052;14.544;2024-03-23T01:33:48;97933.94;;;7.57;100.00
56182;BME280;51963;46.052;14.544;2024-03-23T01:36:14;97919.88;;;7.35;100.00
56182;BME280;51963;46.052;14.544;2024-03-23T01:38:39;97909.97;;;7.37;100.00
56182;BME280;51963;46.052;14.544;2024-03-23T01:41:05;97933.66;;;7.52;100.00
56182;BME280;51963;46.052;14.544;2024-03-23T01:43:30;97933.59;;;7.45;100.00
56182;BME280;51963;46.052;14.544;2024-03-23T01:45:56;97920.88;;;7.34;100.00
56182;BME280;51963;46.052;14.544;2024-03-23T01:48:22;97920.94;;;7.26;100.00
56182;BME280;51963;46.052;14.544;2024-03-23T01:50:47;97915.03;;;7.24;100.00
56182;BME280;51963;46.052;14.544;2024-03-23T01:53:14;97923.56;;;7.26;100.00
56182;BME280;51963;46.052;14.544;2024-03-23T01:55:43;97918.78;;;7.06;100.00
56182;BME280;51963;46.052;14.544;2024-03-23T01:58:08;97901.94;;;6.92;100.00
56182;BME280;51963;46.052;14.544;2024-03-23T02:00:34;97871.97;;;6.86;100.00
56182;BME280;51963;46.052;14.544;2024-03-23T02:02:59;97903.44;;;6.95;100.00
56182;BME280;51963;46.052;14.544;2024-03-23T02:05:26;97902.78;;;6.93;100.00
56182;BME280;51963;46.052;14.544;2024-03-23T02:07:54;97900.66;;;6.88;100.00
56182;BME280;51963;46.052;14.544;2024-03-23T02:10:22;97898.47;;;7.00;100.00
56182;BME280;51963;46.052;14.544;2024-03-23T02:12:48;97886.66;;;6.96;100.00
56182;BME280;51963;46.052;14.544;2024-03-23T02:15:14;97888.41;;;6.80;100.00
56182;BME280;51963;46.052;14.544;2024-03-23T02:17:40;97885.50;;;6.75;100.00
56182;BME280;51963;46.052;14.544;2024-03-23T02:20:05;97884.31;;;6.78;100.00
56182;BME280;51963;46.052;14.544;2024-03-23T02:22:38;97879.66;;;6.65;100.00
56182;BME280;51963;46.052;14.544;2024-03-23T02:25:05;97880.06;;;6.53;100.00
56182;BME280;51963;46.052;14.544;2024-03-23T02:27:31;97878.44;;;6.52;100.00
56182;BME280;51963;46.052;14.544;2024-03-23T02:29:56;97866.03;;;6.38;100.00
56182;BME280;51963;46.052;14.544;2024-03-23T02:32:23;97885.13;;;6.55;100.00
56182;BME280;51963;46.052;14.544;2024-03-23T02:34:49;97870.41;;;6.45;100.00
56182;BME280;51963;46.052;14.544;2024-03-23T02:37:14;97868.47;;;6.39;100.00
56182;BME280;51963;46.052;14.544;2024-03-23T02:39:42;97865.56;;;6.34;100.00
56182;BME280;51963;46.052;14.544;2024-03-23T02:42:10;97852.66;;;6.24;100.00
56182;BME280;51963;46.052;14.544;2024-03-23T02:44:38;97867.84;;;6.37;100.00
56182;BME280;51963;46.052;14.544;2024-03-23T02:47:04;97859.34;;;6.27;100.00
56182;BME280;51963;46.052;14.544;2024-03-23T02:49:32;97871.03;;;6.24;100.00
56182;BME280;51963;46.052;14.544;2024-03-23T02:51:57;97827.00;;;5.95;100.00
56182;BME280;51963;46.052;14.544;2024-03-23T02:54:23;97838.50;;;5.94;100.00
56182;BME280;51963;46.052;14.544;2024-03-23T02:56:48;97853.03;;;6.13;100.00
56182;BME280;51963;46.052;14.544;2024-03-23T02:59:14;97857.75;;;6.18;100.00
56182;BME280;51963;46.052;14.544;2024-03-23T03:01:42;97850.06;;;6.16;100.00
56182;BME280;51963;46.052;14.544;2024-03-23T03:04:07;97855.66;;;6.13;100.00
56182;BME280;51963;46.052;14.544;2024-03-23T03:06:33;97857.16;;;6.07;100.00
56182;BME280;51963;46.052;14.544;2024-03-23T03:08:58;97852.59;;;6.01;100.00
56182;BME280;51963;46.052;14.544;2024-03-23T03:11:24;97864.56;;;5.95;100.00
56182;BME280;51963;46.052;14.544;2024-03-23T03:13:50;97835.13;;;5.77;100.00
56182;BME280;51963;46.052;14.544;2024-03-23T03:16:15;97851.16;;;5.90;100.00
56182;BME280;51963;46.052;14.544;2024-03-23T03:18:41;97844.25;;;5.89;100.00
56182;BME280;51963;46.052;14.544;2024-03-23T03:21:07;97834.44;;;5.83;100.00
56182;BME280;51963;46.052;14.544;2024-03-23T03:23:39;97828.47;;;5.97;100.00
56182;BME280;51963;46.052;14.544;2024-03-23T03:26:05;97798.34;;;5.93;100.00
56182;BME280;51963;46.052;14.544;2024-03-23T03:28:34;97828.44;;;6.37;100.00
56182;BME280;51963;46.052;14.544;2024-03-23T03:31:00;97822.59;;;6.27;100.00
56182;BME280;51963;46.052;14.544;2024-03-23T03:33:29;97814.47;;;6.13;100.00
56182;BME280;51963;46.052;14.544;2024-03-23T03:35:57;97837.47;;;6.11;100.00
56182;BME280;51963;46.052;14.544;2024-03-23T03:38:23;97820.03;;;5.79;100.00
56182;BME280;51963;46.052;14.544;2024-03-23T03:40:48;97838.53;;;5.85;100.00
56182;BME280;51963;46.052;14.544;2024-03-23T03:43:14;97824.16;;;5.73;100.00
56182;BME280;51963;46.052;14.544;2024-03-23T03:45:39;97834.63;;;5.73;100.00
56182;BME280;51963;46.052;14.544;2024-03-23T03:48:05;97829.28;;;5.66;100.00
56182;BME280;51963;46.052;14.544;2024-03-23T03:50:31;97824.69;;;5.60;100.00
56182;BME280;51963;46.052;14.544;2024-03-23T03:52:59;97822.06;;;5.68;100.00
56182;BME280;51963;46.052;14.544;2024-03-23T03:55:24;97827.13;;;5.62;100.00
56182;BME280;51963;46.052;14.544;2024-03-23T03:57:56;97827.44;;;5.67;100.00
56182;BME280;51963;46.052;14.544;2024-03-23T04:00:21;97831.97;;;5.81;100.00
56182;BME280;51963;46.052;14.544;2024-03-23T04:02:47;97817.63;;;5.61;100.00
56182;BME280;51963;46.052;14.544;2024-03-23T04:05:38;97822.88;;;5.61;100.00
56182;BME280;51963;46.052;14.544;2024-03-23T04:08:07;97818.00;;;5.49;100.00
56182;BME280;51963;46.052;14.544;2024-03-23T04:10:33;97814.91;;;5.46;100.00
56182;BME280;51963;46.052;14.544;2024-03-23T04:12:59;97814.41;;;5.42;100.00
56182;BME280;51963;46.052;14.544;2024-03-23T04:15:26;97807.53;;;5.41;100.00
56182;BME280;51963;46.052;14.544;2024-03-23T04:17:52;97803.47;;;5.30;100.00
56182;BME280;51963;46.052;14.544;2024-03-23T04:20:21;97813.13;;;5.38;100.00
56182;BME280;51963;46.052;14.544;2024-03-23T04:22:46;97804.31;;;5.22;100.00
56182;BME280;51963;46.052;14.544;2024-03-23T04:25:13;97812.63;;;5.26;100.00
56182;BME280;51963;46.052;14.544;2024-03-23T04:27:39;97814.47;;;5.25;100.00
56182;BME280;51963;46.052;14.544;2024-03-23T04:30:06;97805.28;;;5.29;100.00
56182;BME280;51963;46.052;14.544;2024-03-23T04:32:38;97805.78;;;5.17;100.00
56182;BME280;51963;46.052;14.544;2024-03-23T04:35:04;97783.06;;;5.01;100.00
56182;BME280;51963;46.052;14.544;2024-03-23T04:37:34;97809.69;;;5.21;100.00
56182;BME280;51963;46.052;14.544;2024-03-23T04:40:00;97801.84;;;5.21;100.00
56182;BME280;51963;46.052;14.544;2024-03-23T04:42:27;97797.78;;;5.02;100.00
56182;BME280;51963;46.052;14.544;2024-03-23T04:44:53;97819.50;;;5.27;100.00
56182;BME280;51963;46.052;14.544;2024-03-23T04:47:19;97817.41;;;5.22;100.00
56182;BME280;51963;46.052;14.544;2024-03-23T04:49:44;97823.13;;;5.26;100.00
56182;BME280;51963;46.052;14.544;2024-03-23T04:52:10;97822.00;;;5.20;100.00
56182;BME280;51963;46.052;14.544;2024-03-23T04:54:35;97814.81;;;5.14;100.00
56182;BME280;51963;46.052;14.544;2024-03-23T04:57:01;97805.78;;;5.08;100.00
56182;BME280;51963;46.052;14.544;2024-03-23T04:59:27;97813.84;;;5.07;100.00
56182;BME280;51963;46.052;14.544;2024-03-23T05:01:52;97817.25;;;4.99;100.00
56182;BME280;51963;46.052;14.544;2024-03-23T05:04:18;97823.16;;;4.93;100.00
56182;BME280;51963;46.052;14.544;2024-03-23T05:06:44;97810.56;;;4.88;100.00
56182;BME280;51963;46.052;14.544;2024-03-23T05:09:09;97815.63;;;4.90;100.00
56182;BME280;51963;46.052;14.544;2024-03-23T05:11:38;97794.53;;;4.75;100.00
56182;BME280;51963;46.052;14.544;2024-03-23T05:14:04;97828.09;;;4.88;100.00
56182;BME280;51963;46.052;14.544;2024-03-23T05:16:29;97794.03;;;4.79;100.00
56182;BME280;51963;46.052;14.544;2024-03-23T05:18:55;97824.31;;;4.90;100.00
56182;BME280;51963;46.052;14.544;2024-03-23T05:21:21;97816.94;;;5.02;100.00
56182;BME280;51963;46.052;14.544;2024-03-23T05:23:47;97813.19;;;4.96;100.00
56182;BME280;51963;46.052;14.544;2024-03-23T05:26:13;97810.72;;;4.95;100.00
56182;BME280;51963;46.052;14.544;2024-03-23T05:28:39;97815.81;;;4.96;100.00
56182;BME280;51963;46.052;14.544;2024-03-23T05:31:05;97805.97;;;4.98;100.00
56182;BME280;51963;46.052;14.544;2024-03-23T05:33:31;97815.31;;;5.01;100.00
56182;BME280;51963;46.052;14.544;2024-03-23T05:35:58;97810.06;;;5.01;100.00
56182;BME280;51963;46.052;14.544;2024-03-23T05:38:24;97815.13;;;5.11;100.00
56182;BME280;51963;46.052;14.544;2024-03-23T05:40:54;97803.81;;;5.10;100.00
56182;BME280;51963;46.052;14.544;2024-03-23T05:43:20;97796.16;;;5.09;100.00
56182;BME280;51963;46.052;14.544;2024-03-23T05:45:53;97799.22;;;5.12;100.00
56182;BME280;51963;46.052;14.544;2024-03-23T05:48:19;97801.19;;;5.19;100.00
56182;BME280;51963;46.052;14.544;2024-03-23T05:50:44;97770.44;;;5.04;100.00
56182;BME280;51963;46.052;14.544;2024-03-23T05:53:10;97791.53;;;5.19;100.00
56182;BME280;51963;46.052;14.544;2024-03-23T05:55:36;97799.72;;;5.24;100.00
56182;BME280;51963;46.052;14.544;2024-03-23T05:58:01;97787.28;;;5.18;100.00
56182;BME280;51963;46.052;14.544;2024-03-23T06:00:27;97802.81;;;5.28;100.00
56182;BME280;51963;46.052;14.544;2024-03-23T06:02:52;97804.44;;;5.37;100.00
56182;BME280;51963;46.052;14.544;2024-03-23T06:05:18;97804.59;;;5.36;100.00
56182;BME280;51963;46.052;14.544;2024-03-23T06:07:46;97795.94;;;5.35;100.00
56182;BME280;51963;46.052;14.544;2024-03-23T06:10:12;97797.38;;;5.46;100.00
56182;BME280;51963;46.052;14.544;2024-03-23T06:12:37;97804.72;;;5.51;100.00
56182;BME280;51963;46.052;14.544;2024-03-23T06:15:03;97796.84;;;5.59;100.00
56182;BME280;51963;46.052;14.544;2024-03-23T06:17:29;97795.78;;;5.77;100.00
56182;BME280;51963;46.052;14.544;2024-03-23T06:19:54;97787.91;;;5.77;100.00
56182;BME280;51963;46.052;14.544;2024-03-23T06:22:20;97799.44;;;5.99;100.00
56182;BME280;51963;46.052;14.544;2024-03-23T06:24:46;97794.66;;;6.11;100.00
56182;BME280;51963;46.052;14.544;2024-03-23T06:27:14;97793.97;;;6.40;100.00
56182;BME280;51963;46.052;14.544;2024-03-23T06:29:40;97763.63;;;6.38;100.00
56182;BME280;51963;46.052;14.544;2024-03-23T06:32:06;97755.41;;;6.41;100.00
56182;BME280;51963;46.052;14.544;2024-03-23T06:34:34;97790.13;;;6.89;100.00
56182;BME280;51963;46.052;14.544;2024-03-23T06:37:01;97771.59;;;7.06;100.00
56182;BME280;51963;46.052;14.544;2024-03-23T06:39:28;97773.78;;;7.17;100.00
56182;BME280;51963;46.052;14.544;2024-03-23T06:41:57;97778.31;;;7.24;100.00
56182;BME280;51963;46.052;14.544;2024-03-23T06:44:23;97773.59;;;7.34;100.00
56182;BME280;51963;46.052;14.544;2024-03-23T06:46:52;97759.19;;;7.30;100.00
56182;BME280;51963;46.052;14.544;2024-03-23T06:49:18;97772.41;;;7.52;100.00
56182;BME280;51963;46.052;14.544;2024-03-23T06:51:45;97777.06;;;7.86;100.00
56182;BME280;51963;46.052;14.544;2024-03-23T06:54:10;97773.44;;;8.24;100.00
56182;BME280;51963;46.052;14.544;2024-03-23T06:56:36;97752.13;;;8.62;100.00
56182;BME280;51963;46.052;14.544;2024-03-23T06:59:02;97770.56;;;9.19;100.00
56182;BME280;51963;46.052;14.544;2024-03-23T07:01:27;97763.72;;;9.67;100.00
56182;BME280;51963;46.052;14.544;2024-03-23T07:03:54;97751.84;;;9.98;100.00
56182;BME280;51963;46.052;14.544;2024-03-23T07:06:20;97765.38;;;10.44;100.00
56182;BME280;51963;46.052;14.544;2024-03-23T07:08:49;97763.59;;;10.78;100.00
56182;BME280;51963;46.052;14.544;2024-03-23T07:11:24;97770.09;;;11.09;100.00
56182;BME280;51963;46.052;14.544;2024-03-23T07:13:50;97762.91;;;11.29;98.78
56182;BME280;51963;46.052;14.544;2024-03-23T07:16:16;97762.25;;;11.48;97.21
56182;BME280;51963;46.052;14.544;2024-03-23T07:18:42;97759.97;;;11.65;93.79
56182;BME280;51963;46.052;14.544;2024-03-23T07:21:08;97768.59;;;11.92;92.06
56182;BME280;51963;46.052;14.544;2024-03-23T07:23:33;97768.28;;;12.21;84.43
56182;BME280;51963;46.052;14.544;2024-03-23T07:26:03;97760.50;;;12.58;84.12
56182;BME280;51963;46.052;14.544;2024-03-23T07:28:34;97756.63;;;13.04;76.50
56182;BME280;51963;46.052;14.544;2024-03-23T07:31:08;97753.44;;;13.40;73.75
56182;BME280;51963;46.052;14.544;2024-03-23T07:33:35;97745.91;;;13.74;69.46
56182;BME280;51963;46.052;14.544;2024-03-23T07:36:00;97734.47;;;13.92;67.16
56182;BME280;51963;46.052;14.544;2024-03-23T07:38:29;97736.06;;;14.23;64.46
56182;BME280;51963;46.052;14.544;2024-03-23T07:41:05;97736.03;;;14.54;61.67
56182;BME280;51963;46.052;14.544;2024-03-23T07:43:31;97743.34;;;14.82;61.38
56182;BME280;51963;46.052;14.544;2024-03-23T07:45:58;97725.69;;;14.88;61.35
56182;BME280;51963;46.052;14.544;2024-03-23T07:48:24;97727.38;;;15.06;60.27
56182;BME280;51963;46.052;14.544;2024-03-23T07:51:08;97739.41;;;15.33;60.77
56182;BME280;51963;46.052;14.544;2024-03-23T07:53:35;97737.28;;;15.59;59.98
56182;BME280;51963;46.052;14.544;2024-03-23T07:56:03;97732.81;;;16.17;56.75
56182;BME280;51963;46.052;14.544;2024-03-23T07:58:29;97727.88;;;16.94;53.79
56182;BME280;51963;46.052;14.544;2024-03-23T08:00:56;97726.72;;;17.02;53.65
56182;BME280;51963;46.052;14.544;2024-03-23T08:03:22;97721.53;;;17.57;52.88
56182;BME280;51963;46.052;14.544;2024-03-23T08:05:48;97724.13;;;17.74;51.01
56182;BME280;51963;46.052;14.544;2024-03-23T08:08:14;97727.84;;;17.73;49.41
56182;BME280;51963;46.052;14.544;2024-03-23T08:10:58;97719.16;;;17.60;49.34
56182;BME280;51963;46.052;14.544;2024-03-23T08:13:30;97720.66;;;17.29;49.66
56182;BME280;51963;46.052;14.544;2024-03-23T08:16:01;97715.13;;;17.13;50.14
56182;BME280;51963;46.052;14.544;2024-03-23T08:18:26;97708.97;;;16.96;51.03
56182;BME280;51963;46.052;14.544;2024-03-23T08:20:59;97700.00;;;16.85;51.44
56182;BME280;51963;46.052;14.544;2024-03-23T08:23:27;97701.72;;;16.74;50.96
56182;BME280;51963;46.052;14.544;2024-03-23T08:26:03;97687.97;;;16.82;51.76
56182;BME280;51963;46.052;14.544;2024-03-23T08:28:29;97701.56;;;16.47;51.36
56182;BME280;51963;46.052;14.544;2024-03-23T08:30:55;97702.38;;;16.47;52.44
56182;BME280;51963;46.052;14.544;2024-03-23T08:33:22;97701.25;;;16.43;50.93
56182;BME280;51963;46.052;14.544;2024-03-23T08:35:58;97702.22;;;16.37;51.53
56182;BME280;51963;46.052;14.544;2024-03-23T08:38:26;97688.97;;;16.42;50.37
56182;BME280;51963;46.052;14.544;2024-03-23T08:43:28;97688.09;;;16.07;50.47
56182;BME280;51963;46.052;14.544;2024-03-23T08:46:12;97690.06;;;16.29;50.92
56182;BME280;51963;46.052;14.544;2024-03-23T08:48:40;97678.91;;;16.32;50.62
56182;BME280;51963;46.052;14.544;2024-03-23T08:51:10;97671.72;;;16.50;50.21
56182;BME280;51963;46.052;14.544;2024-03-23T08:53:36;97666.22;;;16.56;49.39
56182;BME280;51963;46.052;14.544;2024-03-23T08:56:03;97676.75;;;16.46;50.80
56182;BME280;51963;46.052;14.544;2024-03-23T08:58:30;97675.06;;;16.40;50.11
56182;BME280;51963;46.052;14.544;2024-03-23T09:01:06;97658.53;;;16.09;51.08
56182;BME280;51963;46.052;14.544;2024-03-23T09:03:32;97656.84;;;16.03;51.25
56182;BME280;51963;46.052;14.544;2024-03-23T09:05:58;97660.25;;;16.15;51.19
56182;BME280;51963;46.052;14.544;2024-03-23T09:08:30;97641.16;;;16.57;50.36
56182;BME280;51963;46.052;14.544;2024-03-23T09:10:56;97633.75;;;16.99;48.78
56182;BME280;51963;46.052;14.544;2024-03-23T09:13:25;97642.00;;;18.24;46.95
56182;BME280;51963;46.052;14.544;2024-03-23T09:15:52;97637.78;;;18.71;45.73
56182;BME280;51963;46.052;14.544;2024-03-23T09:18:23;97609.91;;;19.20;44.03
56182;BME280;51963;46.052;14.544;2024-03-23T09:20:49;97642.69;;;19.48;44.28
56182;BME280;51963;46.052;14.544;2024-03-23T09:23:15;97641.16;;;19.73;42.44
56182;BME280;51963;46.052;14.544;2024-03-23T09:25:40;97622.94;;;19.75;42.71
56182;BME280;51963;46.052;14.544;2024-03-23T09:28:06;97605.81;;;20.02;42.37
56182;BME280;51963;46.052;14.544;2024-03-23T09:30:34;97607.97;;;20.00;41.82
56182;BME280;51963;46.052;14.544;2024-03-23T09:33:00;97625.09;;;20.51;41.75
56182;BME280;51963;46.052;14.544;2024-03-23T09:35:26;97603.03;;;20.70;41.08
56182;BME280;51963;46.052;14.544;2024-03-23T09:37:52;97567.63;;;20.62;41.24
56182;BME280;51963;46.052;14.544;2024-03-23T09:40:18;97605.56;;;21.32;39.59
56182;BME280;51963;46.052;14.544;2024-03-23T09:42:50;97575.97;;;21.77;40.28
56182;BME280;51963;46.052;14.544;2024-03-23T09:45:26;97600.31;;;22.60;38.74
56182;BME280;51963;46.052;14.544;2024-03-23T09:47:52;97592.25;;;22.60;38.74
56182;BME280;51963;46.052;14.544;2024-03-23T09:50:18;97563.22;;;21.93;38.39
56182;BME280;51963;46.052;14.544;2024-03-23T09:52:48;97583.41;;;21.90;39.41
56182;BME280;51963;46.052;14.544;2024-03-23T09:55:14;97568.06;;;22.55;37.81
56182;BME280;51963;46.052;14.544;2024-03-23T09:57:40;97562.16;;;22.53;37.37
56182;BME280;51963;46.052;14.544;2024-03-23T10:00:07;97558.91;;;23.43;35.71
56182;BME280;51963;46.052;14.544;2024-03-23T10:02:34;97557.53;;;23.98;35.66
56182;BME280;51963;46.052;14.544;2024-03-23T10:05:04;97538.38;;;23.80;35.65
56182;BME280;51963;46.052;14.544;2024-03-23T10:07:30;97544.72;;;23.70;37.17
56182;BME280;51963;46.052;14.544;2024-03-23T10:09:56;97537.25;;;23.48;36.38
56182;BME280;51963;46.052;14.544;2024-03-23T10:12:23;97548.00;;;23.10;36.83
56182;BME280;51963;46.052;14.544;2024-03-23T10:14:50;97516.84;;;22.79;36.08
56182;BME280;51963;46.052;14.544;2024-03-23T10:17:18;97534.78;;;22.89;37.11
56182;BME280;51963;46.052;14.544;2024-03-23T10:19:48;97528.81;;;22.92;36.63
56182;BME280;51963;46.052;14.544;2024-03-23T10:22:18;97517.19;;;22.24;37.08
56182;BME280;51963;46.052;14.544;2024-03-23T10:24:44;97514.13;;;21.37;38.31
56182;BME280;51963;46.052;14.544;2024-03-23T10:27:09;97517.09;;;20.75;39.79
56182;BME280;51963;46.052;14.544;2024-03-23T10:29:40;97501.13;;;20.23;39.58
56182;BME280;51963;46.052;14.544;2024-03-23T10:32:09;97499.56;;;20.01;40.27
56182;BME280;51963;46.052;14.544;2024-03-23T10:34:36;97503.94;;;20.78;39.04
56182;BME280;51963;46.052;14.544;2024-03-23T10:37:06;97494.66;;;20.40;39.07
56182;BME280;51963;46.052;14.544;2024-03-23T10:39:41;97484.91;;;20.64;39.91
56182;BME280;51963;46.052;14.544;2024-03-23T10:42:09;97506.78;;;21.03;39.23
56182;BME280;51963;46.052;14.544;2024-03-23T10:44:40;97489.75;;;21.92;37.19
56182;BME280;51963;46.052;14.544;2024-03-23T10:47:06;97477.31;;;22.50;36.94
56182;BME280;51963;46.052;14.544;2024-03-23T10:49:33;97475.47;;;23.66;34.07
56182;BME280;51963;46.052;14.544;2024-03-23T10:52:00;97487.28;;;23.51;34.08
56182;BME280;51963;46.052;14.544;2024-03-23T10:54:27;97462.56;;;23.29;35.06
56182;BME280;51963;46.052;14.544;2024-03-23T10:57:15;97475.56;;;23.22;34.38
56182;BME280;51963;46.052;14.544;2024-03-23T10:59:44;97460.16;;;24.64;33.18
56182;BME280;51963;46.052;14.544;2024-03-23T11:02:19;97461.78;;;25.16;32.84
56182;BME280;51963;46.052;14.544;2024-03-23T11:04:45;97444.31;;;25.22;31.93
56182;BME280;51963;46.052;14.544;2024-03-23T11:07:36;97443.84;;;24.69;31.86
56182;BME280;51963;46.052;14.544;2024-03-23T11:10:02;97445.25;;;25.40;32.18
56182;BME280;51963;46.052;14.544;2024-03-23T11:12:48;97448.44;;;24.83;32.14
56182;BME280;51963;46.052;14.544;2024-03-23T11:15:14;97437.63;;;25.97;32.28
56182;BME280;51963;46.052;14.544;2024-03-23T11:18:03;97412.34;;;25.01;32.32
56182;BME280;51963;46.052;14.544;2024-03-23T11:20:34;97432.22;;;24.83;32.00
56182;BME280;51963;46.052;14.544;2024-03-23T11:22:59;97422.91;;;24.24;33.33
56182;BME280;51963;46.052;14.544;2024-03-23T11:25:26;97406.19;;;23.61;33.91
56182;BME280;51963;46.052;14.544;2024-03-23T11:27:54;97418.16;;;24.58;32.98
56182;BME280;51963;46.052;14.544;2024-03-23T11:30:27;97420.50;;;24.09;33.29
56182;BME280;51963;46.052;14.544;2024-03-23T11:32:56;97405.28;;;24.27;32.87
56182;BME280;51963;46.052;14.544;2024-03-23T11:35:33;97396.69;;;24.39;32.79
56182;BME280;51963;46.052;14.544;2024-03-23T11:38:15;97383.97;;;23.97;33.18
56182;BME280;51963;46.052;14.544;2024-03-23T11:40:50;97392.25;;;23.07;34.46
56182;BME280;51963;46.052;14.544;2024-03-23T11:43:20;97382.47;;;23.11;34.06
56182;BME280;51963;46.052;14.544;2024-03-23T11:45:49;97390.44;;;22.64;35.09
56182;BME280;51963;46.052;14.544;2024-03-23T11:48:20;97366.56;;;22.57;35.91
56182;BME280;51963;46.052;14.544;2024-03-23T11:50:47;97372.03;;;22.27;35.80
56182;BME280;51963;46.052;14.544;2024-03-23T11:53:17;97373.78;;;21.94;35.63
56182;BME280;51963;46.052;14.544;2024-03-23T11:55:56;97354.84;;;22.48;36.05
56182;BME280;51963;46.052;14.544;2024-03-23T11:58:24;97357.66;;;22.56;35.89
56182;BME280;51963;46.052;14.544;2024-03-23T12:01:03;97348.66;;;23.94;33.25
56182;BME280;51963;46.052;14.544;2024-03-23T12:03:30;97336.38;;;24.15;33.58
56182;BME280;51963;46.052;14.544;2024-03-23T12:05:59;97328.75;;;24.68;31.81
56182;BME280;51963;46.052;14.544;2024-03-23T12:08:29;97336.38;;;25.34;32.28
56182;BME280;51963;46.052;14.544;2024-03-23T12:11:11;97318.28;;;24.89;32.18
56182;BME280;51963;46.052;14.544;2024-03-23T12:13:39;97322.22;;;24.46;32.14
56182;BME280;51963;46.052;14.544;2024-03-23T12:16:18;97287.06;;;25.78;30.91
56182;BME280;51963;46.052;14.544;2024-03-23T12:18:49;97297.38;;;27.61;29.68
56182;BME280;51963;46.052;14.544;2024-03-23T12:21:16;97309.75;;;24.73;32.07
56182;BME280;51963;46.052;14.544;2024-03-23T12:23:43;97307.28;;;23.09;33.99
56182;BME280;51963;46.052;14.544;2024-03-23T12:26:12;97297.84;;;21.48;36.80
56182;BME280;51963;46.052;14.544;2024-03-23T12:28:38;97286.66;;;21.12;37.97
56182;BME280;51963;46.052;14.544;2024-03-23T12:31:04;97281.69;;;20.15;38.95
56182;BME280;51963;46.052;14.544;2024-03-23T12:33:31;97286.16;;;19.64;40.34
56182;BME280;51963;46.052;14.544;2024-03-23T12:35:57;97295.91;;;19.18;41.03
56182;BME280;51963;46.052;14.544;2024-03-23T12:38:23;97275.56;;;18.81;41.56
56182;BME280;51963;46.052;14.544;2024-03-23T12:40:50;97272.88;;;18.60;42.76
56182;BME280;51963;46.052;14.544;2024-03-23T12:43:16;97279.00;;;18.45;42.76
56182;BME280;51963;46.052;14.544;2024-03-23T12:45:47;97279.81;;;18.36;43.38
56182;BME280;51963;46.052;14.544;2024-03-23T12:48:13;97274.16;;;18.32;43.15
56182;BME280;51963;46.052;14.544;2024-03-23T12:50:38;97271.25;;;18.49;43.66
56182;BME280;51963;46.052;14.544;2024-03-23T12:53:04;97258.91;;;18.12;44.11
56182;BME280;51963;46.052;14.544;2024-03-23T12:55:29;97267.34;;;17.88;45.95
56182;BME280;51963;46.052;14.544;2024-03-23T12:57:55;97263.50;;;17.58;47.46
56182;BME280;51963;46.052;14.544;2024-03-23T13:00:22;97258.16;;;17.58;49.44
56182;BME280;51963;46.052;14.544;2024-03-23T13:02:48;97278.34;;;17.38;50.83
56182;BME280;51963;46.052;14.544;2024-03-23T13:05:14;97264.41;;;17.26;53.05
56182;BME280;51963;46.052;14.544;2024-03-23T13:07:40;97260.88;;;17.20;53.95
56182;BME280;51963;46.052;14.544;2024-03-23T13:10:06;97251.19;;;17.57;53.52
56182;BME280;51963;46.052;14.544;2024-03-23T13:12:32;97250.66;;;17.55;54.04
56182;BME280;51963;46.052;14.544;2024-03-23T13:14:59;97242.31;;;17.46;54.54
56182;BME280;51963;46.052;14.544;2024-03-23T13:17:26;97238.38;;;17.59;55.13
56182;BME280;51963;46.052;14.544;2024-03-23T13:19:53;97206.13;;;17.18;56.11
56182;BME280;51963;46.052;14.544;2024-03-23T13:22:18;97254.31;;;17.38;56.80
56182;BME280;51963;46.052;14.544;2024-03-23T13:24:44;97246.13;;;17.07;58.86
56182;BME280;51963;46.052;14.544;2024-03-23T13:27:10;97260.00;;;16.77;60.94
56182;BME280;51963;46.052;14.544;2024-03-23T13:29:36;97246.22;;;16.52;62.71
56182;BME280;51963;46.052;14.544;2024-03-23T13:32:03;97222.38;;;16.40;64.64
56182;BME280;51963;46.052;14.544;2024-03-23T13:34:29;97250.53;;;16.59;63.67
56182;BME280;51963;46.052;14.544;2024-03-23T13:36:55;97238.03;;;16.64;63.94
56182;BME280;51963;46.052;14.544;2024-03-23T13:39:26;97237.44;;;16.90;63.47
56182;BME280;51963;46.052;14.544;2024-03-23T13:41:54;97252.59;;;17.17;62.76
56182;BME280;51963;46.052;14.544;2024-03-23T13:44:21;97216.31;;;16.88;63.26
56182;BME280;51963;46.052;14.544;2024-03-23T13:46:47;97232.56;;;17.19;63.70